Terminal Aerodrome Forecast
Issued by NWS Cleveland, OH

Home | Current Version | Previous Version | Graphics & Text | Print | Product List | Glossary On
Versions: 1 2 3 4 5 6 7 8 9 10 11 12 13 14 15 16 17 18 19 20 21 22 23 24 25
523
FTUS41 KCLE 261739
TAFCLE
TAF
KCLE 261739Z 2618/2724 21012G20KT P6SM SCT040
     FM262300 21008KT P6SM SCT050 BKN180
      TEMPO 2702/2705 -SHRA BKN060
     FM270900 20005KT 5SM BR SCT100
     FM271300 21008KT P6SM BKN250
     FM272000 33005KT P6SM SCT050=

USA.gov is the U.S. government's official web portal to all federal, state and local government web resources and services.